Time,TemperatureF,DewpointF,PressureIn,WindDirection,WindDirectionDegrees,WindSpeedMPH,WindSpeedGustMPH,Humidity,HourlyPrecipIn,Conditions,Clouds,dailyrainin,SoftwareType,DateUTC
2013-10-28 00:02:00,36.9,29.7,30.02,East,90,0.0,0.0,75,0.00,,,0.00,meteohub,2013-10-28 05:02:00,
2013-10-28 00:07:00,36.9,30.0,30.02,East,90,0.0,0.0,76,0.00,,,0.00,meteohub,2013-10-28 05:07:00,
2013-10-28 00:12:00,36.9,30.0,30.02,East,90,0.0,0.0,76,0.00,,,0.00,meteohub,2013-10-28 05:12:00,
2013-10-28 00:22:00,36.7,29.8,30.02,East,90,0.0,0.0,76,0.00,,,0.00,meteohub,2013-10-28 05:22:00,
2013-10-28 00:32:00,36.5,29.7,30.02,WSW,248,0.0,0.0,76,0.00,,,0.00,meteohub,2013-10-28 05:32:00,
2013-10-28 00:37:00,36.5,29.7,30.02,SE,135,0.0,0.0,76,0.00,,,0.00,meteohub,2013-10-28 05:37:00,
2013-10-28 00:42:00,36.3,29.5,30.02,SE,135,0.0,0.0,76,0.00,,,0.00,meteohub,2013-10-28 05:42:00,
2013-10-28 00:47:00,36.3,29.8,30.02,North,0,0.0,1.0,77,0.00,,,0.00,meteohub,2013-10-28 05:47:00,
2013-10-28 00:52:00,36.1,29.3,30.02,North,0,0.0,1.0,76,0.00,,,0.00,meteohub,2013-10-28 05:52:00,
2013-10-28 00:57:00,36.1,29.3,30.02,North,0,0.0,1.0,76,0.00,,,0.00,meteohub,2013-10-28 05:57:00,
2013-10-28 01:02:00,36.0,29.5,30.02,North,0,0.0,0.0,77,0.00,,,0.00,meteohub,2013-10-28 06:02:00,
2013-10-28 01:07:00,36.0,29.1,30.02,North,0,0.0,0.0,76,0.00,,,0.00,meteohub,2013-10-28 06:07:00,
2013-10-28 01:12:00,35.8,28.9,30.02,NE,45,0.0,0.0,76,0.00,,,0.00,meteohub,2013-10-28 06:12:00,
2013-10-28 01:17:00,35.8,29.3,30.02,SE,135,0.0,0.0,77,0.00,,,0.00,meteohub,2013-10-28 06:17:00,
2013-10-28 01:22:00,35.8,29.3,30.05,NE,45,0.0,0.0,77,0.00,,,0.00,meteohub,2013-10-28 06:22:00,
2013-10-28 01:27:00,35.8,29.3,30.05,NE,45,0.0,0.0,77,0.00,,,0.00,meteohub,2013-10-28 06:27:00,
2013-10-28 01:32:00,35.6,29.1,30.05,NNE,22,0.0,0.0,77,0.00,,,0.00,meteohub,2013-10-28 06:32:00,
2013-10-28 01:37:00,35.6,29.1,30.05,NNE,22,0.0,0.0,77,0.00,,,0.00,meteohub,2013-10-28 06:37:00,
2013-10-28 01:42:00,35.6,29.1,30.05,NNE,22,0.0,0.0,77,0.00,,,0.00,meteohub,2013-10-28 06:42:00,
2013-10-28 01:47:00,35.4,28.9,30.05,NE,45,0.0,0.0,77,0.00,,,0.00,meteohub,2013-10-28 06:47:00,
2013-10-28 01:52:00,35.2,28.8,30.05,SSW,202,0.0,0.0,77,0.00,,,0.00,meteohub,2013-10-28 06:52:00,
2013-10-28 01:57:00,35.1,28.6,30.05,West,270,0.0,2.0,77,0.00,,,0.00,meteohub,2013-10-28 06:57:00,
2013-10-28 02:02:00,35.1,28.9,30.05,South,180,1.0,2.0,78,0.00,,,0.00,meteohub,2013-10-28 07:02:00,
2013-10-28 02:12:00,34.9,28.8,30.05,SW,225,0.0,2.0,78,0.00,,,0.00,meteohub,2013-10-28 07:12:00,
2013-10-28 02:17:00,34.9,28.8,30.05,SW,225,0.0,2.0,78,0.00,,,0.00,meteohub,2013-10-28 07:17:00,
2013-10-28 02:22:00,34.9,28.8,30.05,NW,315,0.0,0.0,78,0.00,,,0.00,meteohub,2013-10-28 07:22:00,
2013-10-28 02:27:00,34.9,28.8,30.05,SSW,202,0.0,0.0,78,0.00,,,0.00,meteohub,2013-10-28 07:27:00,
2013-10-28 02:32:00,34.9,28.8,30.05,West,270,0.0,3.0,78,0.00,,,0.00,meteohub,2013-10-28 07:32:00,
2013-10-28 02:37:00,34.9,29.1,30.02,NW,315,0.0,3.0,79,0.00,,,0.00,meteohub,2013-10-28 07:37:00,
2013-10-28 02:42:00,34.7,28.9,30.02,NW,315,0.0,2.0,79,0.00,,,0.00,meteohub,2013-10-28 07:42:00,
2013-10-28 02:47:00,34.7,28.9,30.02,NW,315,0.0,1.0,79,0.00,,,0.00,meteohub,2013-10-28 07:47:00,
2013-10-28 02:52:00,34.7,28.6,30.05,South,180,0.0,1.0,78,0.00,,,0.00,meteohub,2013-10-28 07:52:00,
2013-10-28 02:57:00,34.5,28.4,30.05,WNW,292,0.0,0.0,78,0.00,,,0.00,meteohub,2013-10-28 07:57:00,
2013-10-28 03:02:00,34.3,28.2,30.05,South,180,0.0,3.0,78,0.00,,,0.00,meteohub,2013-10-28 08:02:00,
2013-10-28 03:07:00,34.3,28.2,30.05,West,270,0.0,3.0,78,0.00,,,0.00,meteohub,2013-10-28 08:07:00,
2013-10-28 03:12:00,34.3,28.6,30.05,West,270,0.0,3.0,79,0.00,,,0.00,meteohub,2013-10-28 08:12:00,
2013-10-28 03:17:00,34.3,28.6,30.05,North,0,0.0,1.0,79,0.00,,,0.00,meteohub,2013-10-28 08:17:00,
2013-10-28 03:22:00,34.2,28.4,30.05,SSE,158,0.0,0.0,79,0.00,,,0.00,meteohub,2013-10-28 08:22:00,
2013-10-28 03:27:00,34.0,28.2,30.05,NW,315,0.0,1.0,79,0.00,,,0.00,meteohub,2013-10-28 08:27:00,
2013-10-28 03:32:00,33.8,28.0,30.05,West,270,0.0,1.0,79,0.00,,,0.00,meteohub,2013-10-28 08:32:00,
2013-10-28 03:37:00,33.8,28.0,30.05,NW,315,0.0,1.0,79,0.00,,,0.00,meteohub,2013-10-28 08:37:00,
2013-10-28 03:42:00,34.0,28.2,30.05,NW,315,0.0,0.0,79,0.00,,,0.00,meteohub,2013-10-28 08:42:00,
2013-10-28 03:47:00,34.0,28.2,30.05,NW,315,0.0,0.0,79,0.00,,,0.00,meteohub,2013-10-28 08:47:00,
2013-10-28 03:52:00,34.0,28.2,30.08,North,0,0.0,0.0,79,0.00,,,0.00,meteohub,2013-10-28 08:52:00,
2013-10-28 03:57:00,33.8,28.0,30.08,South,180,0.0,0.0,79,0.00,,,0.00,meteohub,2013-10-28 08:57:00,
2013-10-28 04:02:00,33.6,28.2,30.08,WNW,292,0.0,1.0,80,0.00,,,0.00,meteohub,2013-10-28 09:02:00,
2013-10-28 04:07:00,33.8,28.2,30.08,WNW,292,0.0,1.0,80,0.00,,,0.00,meteohub,2013-10-28 09:07:00,
2013-10-28 04:12:00,33.6,28.2,30.08,WNW,292,0.0,0.0,80,0.00,,,0.00,meteohub,2013-10-28 09:12:00,
2013-10-28 04:17:00,33.6,28.2,30.08,WNW,292,0.0,0.0,80,0.00,,,0.00,meteohub,2013-10-28 09:17:00,
2013-10-28 04:22:00,33.6,28.2,30.11,WNW,292,0.0,0.0,80,0.00,,,0.00,meteohub,2013-10-28 09:22:00,
2013-10-28 04:27:00,33.6,28.2,30.11,WNW,292,0.0,0.0,80,0.00,,,0.00,meteohub,2013-10-28 09:27:00,
2013-10-28 04:32:00,33.6,28.2,30.11,WNW,292,0.0,0.0,80,0.00,,,0.00,meteohub,2013-10-28 09:32:00,
2013-10-28 04:37:00,33.4,28.0,30.11,WNW,292,0.0,0.0,80,0.00,,,0.00,meteohub,2013-10-28 09:37:00,
2013-10-28 04:42:00,33.4,28.0,30.11,WNW,292,0.0,0.0,80,0.00,,,0.00,meteohub,2013-10-28 09:42:00,
2013-10-28 04:47:00,33.4,28.0,30.11,WNW,292,0.0,0.0,80,0.00,,,0.00,meteohub,2013-10-28 09:47:00,
2013-10-28 04:52:00,33.4,28.0,30.11,WNW,292,0.0,0.0,80,0.00,,,0.00,meteohub,2013-10-28 09:52:00,
2013-10-28 04:57:00,33.4,28.0,30.11,WNW,292,0.0,0.0,80,0.00,,,0.00,meteohub,2013-10-28 09:57:00,
2013-10-28 05:02:00,33.4,28.0,30.11,WNW,292,0.0,0.0,80,0.00,,,0.00,meteohub,2013-10-28 10:02:00,
2013-10-28 05:07:00,33.4,28.0,30.11,WNW,292,0.0,0.0,80,0.00,,,0.00,meteohub,2013-10-28 10:07:00,
2013-10-28 05:12:00,33.3,27.9,30.11,NW,315,0.0,0.0,80,0.00,,,0.00,meteohub,2013-10-28 10:12:00,
2013-10-28 05:17:00,33.1,27.7,30.11,NNW,338,0.0,1.0,80,0.00,,,0.00,meteohub,2013-10-28 10:17:00,
2013-10-28 05:22:00,33.1,27.9,30.11,NNW,338,0.0,1.0,81,0.00,,,0.00,meteohub,2013-10-28 10:22:00,
2013-10-28 05:27:00,33.3,28.0,30.11,NNW,338,0.0,1.0,81,0.00,,,0.00,meteohub,2013-10-28 10:27:00,
2013-10-28 05:32:00,33.1,27.7,30.11,South,180,0.0,1.0,80,0.00,,,0.00,meteohub,2013-10-28 10:32:00,
2013-10-28 05:37:00,32.9,27.5,30.11,South,180,0.0,0.0,80,0.00,,,0.00,meteohub,2013-10-28 10:37:00,
2013-10-28 05:42:00,32.9,27.7,30.11,South,180,0.0,0.0,81,0.00,,,0.00,meteohub,2013-10-28 10:42:00,
2013-10-28 05:47:00,32.9,27.7,30.11,South,180,0.0,0.0,81,0.00,,,0.00,meteohub,2013-10-28 10:47:00,
2013-10-28 05:52:00,32.7,27.3,30.11,South,180,0.0,0.0,80,0.00,,,0.00,meteohub,2013-10-28 10:52:00,
2013-10-28 05:57:00,32.7,27.5,30.11,South,180,0.0,0.0,81,0.00,,,0.00,meteohub,2013-10-28 10:57:00,
2013-10-28 06:02:00,32.7,27.5,30.11,South,180,0.0,0.0,81,0.00,,,0.00,meteohub,2013-10-28 11:02:00,
2013-10-28 06:07:00,32.7,27.5,30.08,South,180,0.0,0.0,81,0.00,,,0.00,meteohub,2013-10-28 11:07:00,
2013-10-28 06:12:00,32.7,27.5,30.08,South,180,0.0,0.0,81,0.00,,,0.00,meteohub,2013-10-28 11:12:00,
2013-10-28 06:17:00,32.5,27.3,30.08,South,180,0.0,0.0,81,0.00,,,0.00,meteohub,2013-10-28 11:17:00,
2013-10-28 06:22:00,32.5,27.1,30.08,South,180,0.0,0.0,80,0.00,,,0.00,meteohub,2013-10-28 11:22:00,
2013-10-28 06:27:00,32.2,26.8,30.08,South,180,0.0,0.0,80,0.00,,,0.00,meteohub,2013-10-28 11:27:00,
2013-10-28 06:32:00,32.2,27.0,30.08,SSW,202,0.0,0.0,81,0.00,,,0.00,meteohub,2013-10-28 11:32:00,
2013-10-28 06:37:00,32.2,27.0,30.08,SSW,202,0.0,0.0,81,0.00,,,0.00,meteohub,2013-10-28 11:37:00,
2013-10-28 06:42:00,32.2,27.0,30.08,SW,225,0.0,0.0,81,0.00,,,0.00,meteohub,2013-10-28 11:42:00,
2013-10-28 06:47:00,32.4,27.5,30.08,SW,225,0.0,1.0,82,0.00,,,0.00,meteohub,2013-10-28 11:47:00,
2013-10-28 06:52:00,32.5,27.7,30.11,SW,225,0.0,1.0,82,0.00,,,0.00,meteohub,2013-10-28 11:52:00,
2013-10-28 06:57:00,32.5,27.7,30.11,SW,225,0.0,0.0,82,0.00,,,0.00,meteohub,2013-10-28 11:57:00,
2013-10-28 07:02:00,32.7,28.2,30.11,SW,225,0.0,0.0,83,0.00,,,0.00,meteohub,2013-10-28 12:02:00,
2013-10-28 07:07:00,32.7,27.9,30.11,SW,225,0.0,0.0,82,0.00,,,0.00,meteohub,2013-10-28 12:07:00,
2013-10-28 07:12:00,32.7,27.9,30.11,SW,225,0.0,0.0,82,0.00,,,0.00,meteohub,2013-10-28 12:12:00,
2013-10-28 07:17:00,32.7,28.2,30.11,SW,225,0.0,0.0,83,0.00,,,0.00,meteohub,2013-10-28 12:17:00,
2013-10-28 07:22:00,32.9,28.4,30.11,SW,225,0.0,0.0,83,0.00,,,0.00,meteohub,2013-10-28 12:22:00,
2013-10-28 07:27:00,33.1,28.6,30.11,SW,225,0.0,0.0,83,0.00,,,0.00,meteohub,2013-10-28 12:27:00,
2013-10-28 07:32:00,33.1,28.6,30.11,SW,225,0.0,0.0,83,0.00,,,0.00,meteohub,2013-10-28 12:32:00,
2013-10-28 07:37:00,33.3,28.9,30.14,SW,225,0.0,0.0,84,0.00,,,0.00,meteohub,2013-10-28 12:37:00,
2013-10-28 07:42:00,33.4,29.1,30.14,West,270,0.0,0.0,84,0.00,,,0.00,meteohub,2013-10-28 12:42:00,
2013-10-28 07:47:00,33.6,29.3,30.14,West,270,0.0,0.0,84,0.00,,,0.00,meteohub,2013-10-28 12:47:00,
2013-10-28 07:52:00,33.8,29.5,30.14,West,270,0.0,0.0,84,0.00,,,0.00,meteohub,2013-10-28 12:52:00,
2013-10-28 07:57:00,34.0,29.7,30.14,West,270,0.0,0.0,84,0.00,,,0.00,meteohub,2013-10-28 12:57:00,
2013-10-28 08:02:00,34.3,30.4,30.14,West,270,0.0,0.0,85,0.00,,,0.00,meteohub,2013-10-28 13:02:00,
2013-10-28 08:07:00,34.7,30.7,30.14,West,270,0.0,0.0,85,0.00,,,0.00,meteohub,2013-10-28 13:07:00,
2013-10-28 08:12:00,35.1,31.1,30.14,West,270,0.0,0.0,85,0.00,,,0.00,meteohub,2013-10-28 13:12:00,
2013-10-28 08:17:00,35.4,31.6,30.14,West,270,0.0,0.0,86,0.00,,,0.00,meteohub,2013-10-28 13:17:00,
2013-10-28 08:22:00,36.0,32.2,30.14,SSW,202,0.0,0.0,86,0.00,,,0.00,meteohub,2013-10-28 13:22:00,
2013-10-28 08:27:00,36.7,33.3,30.14,SW,225,0.0,0.0,87,0.00,,,0.00,meteohub,2013-10-28 13:27:00,
2013-10-28 08:32:00,37.0,33.6,30.14,SW,225,0.0,1.0,87,0.00,,,0.00,meteohub,2013-10-28 13:32:00,
2013-10-28 08:37:00,37.8,34.3,30.14,SW,225,0.0,1.0,87,0.00,,,0.00,meteohub,2013-10-28 13:37:00,
2013-10-28 08:42:00,38.5,35.2,30.14,SW,225,0.0,1.0,88,0.00,,,0.00,meteohub,2013-10-28 13:42:00,
2013-10-28 08:47:00,39.0,35.8,30.14,SW,225,0.0,1.0,88,0.00,,,0.00,meteohub,2013-10-28 13:47:00,
2013-10-28 08:52:00,39.7,36.5,30.17,SW,225,0.0,0.0,88,0.00,,,0.00,meteohub,2013-10-28 13:52:00,
2013-10-28 08:57:00,40.3,37.0,30.17,East,90,0.0,0.0,88,0.00,,,0.00,meteohub,2013-10-28 13:57:00,
2013-10-28 09:02:00,40.6,37.0,30.17,East,90,0.0,1.0,87,0.00,,,0.00,meteohub,2013-10-28 14:02:00,
2013-10-28 09:07:00,41.2,37.4,30.17,South,180,0.0,1.0,86,0.00,,,0.00,meteohub,2013-10-28 14:07:00,
2013-10-28 09:12:00,41.7,37.9,30.17,South,180,0.0,1.0,86,0.00,,,0.00,meteohub,2013-10-28 14:12:00,
2013-10-28 09:17:00,42.3,38.1,30.17,SSW,202,0.0,0.0,85,0.00,,,0.00,meteohub,2013-10-28 14:17:00,
2013-10-28 09:22:00,42.8,38.3,30.17,SSW,202,0.0,2.0,84,0.00,,,0.00,meteohub,2013-10-28 14:22:00,
2013-10-28 09:27:00,43.3,38.8,30.17,SW,225,0.0,2.0,84,0.00,,,0.00,meteohub,2013-10-28 14:27:00,
2013-10-28 09:32:00,43.9,38.8,30.17,West,270,0.0,1.0,82,0.00,,,0.00,meteohub,2013-10-28 14:32:00,
2013-10-28 09:37:00,44.2,39.0,30.17,SSW,202,0.0,1.0,82,0.00,,,0.00,meteohub,2013-10-28 14:37:00,
2013-10-28 09:42:00,45.1,39.4,30.17,SSE,158,0.0,2.0,80,0.00,,,0.00,meteohub,2013-10-28 14:42:00,
2013-10-28 09:47:00,45.9,39.0,30.17,ENE,68,0.0,2.0,77,0.00,,,0.00,meteohub,2013-10-28 14:47:00,
2013-10-28 09:52:00,46.2,39.0,30.17,East,90,0.0,1.0,76,0.00,,,0.00,meteohub,2013-10-28 14:52:00,
2013-10-28 09:57:00,46.8,38.7,30.17,East,90,0.0,0.0,73,0.00,,,0.00,meteohub,2013-10-28 14:57:00,
2013-10-28 10:02:00,47.3,38.8,30.17,West,270,0.0,0.0,72,0.00,,,0.00,meteohub,2013-10-28 15:02:00,
2013-10-28 10:07:00,48.0,38.7,30.14,East,90,0.0,0.0,70,0.00,,,0.00,meteohub,2013-10-28 15:07:00,
2013-10-28 10:12:00,48.2,38.8,30.14,WSW,248,2.0,0.0,70,0.00,,,0.00,meteohub,2013-10-28 15:12:00,
2013-10-28 10:17:00,48.9,38.5,30.14,East,90,0.0,2.0,67,0.00,,,0.00,meteohub,2013-10-28 15:17:00,
2013-10-28 10:22:00,49.3,38.1,30.14,SW,225,0.0,2.0,65,0.00,,,0.00,meteohub,2013-10-28 15:22:00,
2013-10-28 10:27:00,49.6,37.9,30.14,North,0,0.0,2.0,64,0.00,,,0.00,meteohub,2013-10-28 15:27:00,
2013-10-28 10:32:00,50.2,37.8,30.14,WSW,248,2.0,3.0,62,0.00,,,0.00,meteohub,2013-10-28 15:32:00,
2013-10-28 10:37:00,50.5,37.6,30.17,West,270,3.0,3.0,61,0.00,,,0.00,meteohub,2013-10-28 15:37:00,
2013-10-28 10:42:00,51.1,38.1,30.17,SW,225,2.0,4.0,61,0.00,,,0.00,meteohub,2013-10-28 15:42:00,
2013-10-28 10:47:00,51.3,37.9,30.17,South,180,3.0,4.0,60,0.00,,,0.00,meteohub,2013-10-28 15:47:00,
2013-10-28 10:52:00,51.8,35.8,30.17,SW,225,0.0,4.0,54,0.00,,,0.00,meteohub,2013-10-28 15:52:00,
2013-10-28 10:57:00,52.0,36.3,30.17,SW,225,0.0,3.0,55,0.00,,,0.00,meteohub,2013-10-28 15:57:00,
2013-10-28 11:02:00,52.3,36.1,30.17,WSW,248,0.0,4.0,54,0.00,,,0.00,meteohub,2013-10-28 16:02:00,
2013-10-28 11:07:00,52.7,36.1,30.17,SSW,202,3.0,4.0,53,0.00,,,0.00,meteohub,2013-10-28 16:07:00,
2013-10-28 11:12:00,53.1,36.0,30.17,ENE,68,0.0,3.0,52,0.00,,,0.00,meteohub,2013-10-28 16:12:00,
2013-10-28 11:17:00,53.4,36.7,30.17,SSE,158,0.0,3.0,53,0.00,,,0.00,meteohub,2013-10-28 16:17:00,
2013-10-28 11:22:00,53.6,36.0,30.17,NE,45,0.0,3.0,51,0.00,,,0.00,meteohub,2013-10-28 16:22:00,
2013-10-28 11:27:00,54.0,35.8,30.17,SSW,202,0.0,0.0,50,0.00,,,0.00,meteohub,2013-10-28 16:27:00,
2013-10-28 11:32:00,54.3,35.1,30.17,South,180,3.0,3.0,48,0.00,,,0.00,meteohub,2013-10-28 16:32:00,
2013-10-28 11:37:00,54.5,35.2,30.17,SW,225,3.0,4.0,48,0.00,,,0.00,meteohub,2013-10-28 16:37:00,
2013-10-28 11:42:00,54.7,35.4,30.17,East,90,1.0,4.0,48,0.00,,,0.00,meteohub,2013-10-28 16:42:00,
2013-10-28 11:47:00,54.9,35.1,30.17,East,90,0.0,4.0,47,0.00,,,0.00,meteohub,2013-10-28 16:47:00,
2013-10-28 11:52:00,55.0,34.7,30.17,SSW,202,0.0,3.0,46,0.00,,,0.00,meteohub,2013-10-28 16:52:00,
2013-10-28 11:57:00,55.0,34.7,30.17,ENE,68,0.0,4.0,46,0.00,,,0.00,meteohub,2013-10-28 16:57:00,
2013-10-28 12:02:00,55.4,34.5,30.17,ENE,68,1.0,4.0,45,0.00,,,0.00,meteohub,2013-10-28 17:02:00,
2013-10-28 12:07:00,55.4,33.8,30.17,East,90,1.0,4.0,44,0.00,,,0.00,meteohub,2013-10-28 17:07:00,
2013-10-28 12:12:00,55.4,33.8,30.17,SW,225,1.0,3.0,44,0.00,,,0.00,meteohub,2013-10-28 17:12:00,
2013-10-28 12:17:00,55.8,33.6,30.17,SSW,202,1.0,3.0,43,0.00,,,0.00,meteohub,2013-10-28 17:17:00,
2013-10-28 12:22:00,55.9,33.8,30.14,South,180,1.0,4.0,43,0.00,,,0.00,meteohub,2013-10-28 17:22:00,
2013-10-28 12:27:00,56.1,33.4,30.14,SW,225,2.0,4.0,42,0.00,,,0.00,meteohub,2013-10-28 17:27:00,
2013-10-28 12:32:00,56.3,34.2,30.14,South,180,0.0,5.0,43,0.00,,,0.00,meteohub,2013-10-28 17:32:00,
2013-10-28 12:37:00,56.3,34.2,30.17,SE,135,0.0,5.0,43,0.00,,,0.00,meteohub,2013-10-28 17:37:00,
2013-10-28 12:42:00,56.7,34.5,30.17,SSE,158,0.0,5.0,43,0.00,,,0.00,meteohub,2013-10-28 17:42:00,
2013-10-28 12:47:00,56.8,34.0,30.17,SSE,158,1.0,3.0,42,0.00,,,0.00,meteohub,2013-10-28 17:47:00,
2013-10-28 12:52:00,57.0,33.6,30.17,East,90,2.0,3.0,41,0.00,,,0.00,meteohub,2013-10-28 17:52:00,
2013-10-28 12:57:00,57.0,33.6,30.17,SSE,158,2.0,3.0,41,0.00,,,0.00,meteohub,2013-10-28 17:57:00,
2013-10-28 13:02:00,57.2,32.5,30.17,SSE,158,0.0,3.0,39,0.00,,,0.00,meteohub,2013-10-28 18:02:00,
2013-10-28 13:07:00,57.4,33.3,30.17,West,270,0.0,2.0,40,0.00,,,0.00,meteohub,2013-10-28 18:07:00,
2013-10-28 13:12:00,57.4,32.7,30.17,East,90,2.0,2.0,39,0.00,,,0.00,meteohub,2013-10-28 18:12:00,
2013-10-28 13:17:00,57.4,32.7,30.17,SE,135,0.0,2.0,39,0.00,,,0.00,meteohub,2013-10-28 18:17:00,
2013-10-28 13:22:00,57.4,32.7,30.17,SW,225,0.0,2.0,39,0.00,,,0.00,meteohub,2013-10-28 18:22:00,
2013-10-28 13:27:00,57.6,32.2,30.17,NNW,338,0.0,2.0,38,0.00,,,0.00,meteohub,2013-10-28 18:27:00,
2013-10-28 13:32:00,57.7,32.9,30.17,SSW,202,3.0,3.0,39,0.00,,,0.00,meteohub,2013-10-28 18:32:00,
2013-10-28 13:37:00,58.1,32.7,30.17,SSW,202,0.0,4.0,38,0.00,,,0.00,meteohub,2013-10-28 18:37:00,
2013-10-28 13:42:00,57.9,31.8,30.17,East,90,2.0,4.0,37,0.00,,,0.00,meteohub,2013-10-28 18:42:00,
2013-10-28 13:47:00,57.9,31.8,30.17,SSE,158,2.0,4.0,37,0.00,,,0.00,meteohub,2013-10-28 18:47:00,
2013-10-28 13:52:00,57.9,31.8,30.17,SW,225,2.0,4.0,37,0.00,,,0.00,meteohub,2013-10-28 18:52:00,
2013-10-28 13:57:00,58.1,32.0,30.17,SW,225,0.0,4.0,37,0.00,,,0.00,meteohub,2013-10-28 18:57:00,
2013-10-28 14:02:00,58.3,32.2,30.17,NE,45,0.0,3.0,37,0.00,,,0.00,meteohub,2013-10-28 19:02:00,
2013-10-28 14:07:00,58.5,32.4,30.17,WSW,248,4.0,4.0,37,0.00,,,0.00,meteohub,2013-10-28 19:07:00,
2013-10-28 14:12:00,58.5,32.4,30.17,SSE,158,2.0,4.0,37,0.00,,,0.00,meteohub,2013-10-28 19:12:00,
2013-10-28 14:17:00,58.6,31.8,30.17,NW,315,0.0,4.0,36,0.00,,,0.00,meteohub,2013-10-28 19:17:00,
2013-10-28 14:22:00,58.6,31.8,30.17,South,180,1.0,4.0,36,0.00,,,0.00,meteohub,2013-10-28 19:22:00,
2013-10-28 14:27:00,58.8,32.0,30.17,SSW,202,3.0,3.0,36,0.00,,,0.00,meteohub,2013-10-28 19:27:00,
2013-10-28 14:32:00,58.8,32.7,30.17,SSW,202,0.0,4.0,37,0.00,,,0.00,meteohub,2013-10-28 19:32:00,
2013-10-28 14:37:00,58.6,32.5,30.17,SW,225,2.0,4.0,37,0.00,,,0.00,meteohub,2013-10-28 19:37:00,
2013-10-28 14:47:00,58.3,32.2,30.17,South,180,2.0,3.0,37,0.00,,,0.00,meteohub,2013-10-28 19:47:00,
2013-10-28 14:52:00,58.3,32.2,30.14,ESE,112,0.0,2.0,37,0.00,,,0.00,meteohub,2013-10-28 19:52:00,
2013-10-28 14:57:00,58.1,32.0,30.14,SW,225,3.0,3.0,37,0.00,,,0.00,meteohub,2013-10-28 19:57:00,
2013-10-28 15:02:00,58.3,32.2,30.14,SE,135,0.0,3.0,37,0.00,,,0.00,meteohub,2013-10-28 20:02:00,
2013-10-28 15:07:00,58.3,32.2,30.14,SE,135,0.0,3.0,37,0.00,,,0.00,meteohub,2013-10-28 20:07:00,
2013-10-28 15:12:00,58.3,31.5,30.14,SE,135,0.0,3.0,36,0.00,,,0.00,meteohub,2013-10-28 20:12:00,
2013-10-28 15:22:00,58.3,31.5,30.14,NW,315,0.0,4.0,36,0.00,,,0.00,meteohub,2013-10-28 20:22:00,
2013-10-28 15:27:00,58.1,31.3,30.14,ESE,112,0.0,1.0,36,0.00,,,0.00,meteohub,2013-10-28 20:27:00,
2013-10-28 15:32:00,58.1,31.3,30.14,WNW,292,1.0,0.0,36,0.00,,,0.00,meteohub,2013-10-28 20:32:00,
2013-10-28 15:37:00,58.1,31.3,30.14,SW,225,0.0,2.0,36,0.00,,,0.00,meteohub,2013-10-28 20:37:00,
2013-10-28 15:42:00,58.3,31.5,30.14,South,180,0.0,2.0,36,0.00,,,0.00,meteohub,2013-10-28 20:42:00,
2013-10-28 15:47:00,58.3,32.2,30.14,South,180,0.0,4.0,37,0.00,,,0.00,meteohub,2013-10-28 20:47:00,
2013-10-28 15:52:00,58.1,32.0,30.17,SE,135,0.0,4.0,37,0.00,,,0.00,meteohub,2013-10-28 20:52:00,
2013-10-28 15:57:00,57.9,31.8,30.17,West,270,0.0,4.0,37,0.00,,,0.00,meteohub,2013-10-28 20:57:00,
2013-10-28 16:02:00,57.7,31.6,30.17,NE,45,0.0,0.0,37,0.00,,,0.00,meteohub,2013-10-28 21:02:00,
2013-10-28 16:07:00,57.6,31.5,30.17,North,0,0.0,1.0,37,0.00,,,0.00,meteohub,2013-10-28 21:07:00,
2013-10-28 16:12:00,57.6,30.9,30.17,North,0,0.0,1.0,36,0.00,,,0.00,meteohub,2013-10-28 21:12:00,
2013-10-28 16:17:00,57.2,30.6,30.17,NW,315,0.0,1.0,36,0.00,,,0.00,meteohub,2013-10-28 21:17:00,
2013-10-28 16:22:00,57.2,30.6,30.17,North,0,0.0,0.0,36,0.00,,,0.00,meteohub,2013-10-28 21:22:00,
2013-10-28 16:27:00,57.0,31.1,30.17,NE,45,0.0,0.0,37,0.00,,,0.00,meteohub,2013-10-28 21:27:00,
2013-10-28 16:32:00,56.8,30.9,30.17,NE,45,0.0,0.0,37,0.00,,,0.00,meteohub,2013-10-28 21:32:00,
2013-10-28 16:37:00,56.7,30.7,30.17,ENE,68,0.0,0.0,37,0.00,,,0.00,meteohub,2013-10-28 21:37:00,
2013-10-28 16:42:00,56.3,30.4,30.17,East,90,0.0,0.0,37,0.00,,,0.00,meteohub,2013-10-28 21:42:00,
2013-10-28 16:47:00,56.1,30.2,30.17,East,90,0.0,0.0,37,0.00,,,0.00,meteohub,2013-10-28 21:47:00,
2013-10-28 16:52:00,55.9,30.0,30.17,East,90,0.0,0.0,37,0.00,,,0.00,meteohub,2013-10-28 21:52:00,
2013-10-28 16:57:00,55.6,29.8,30.17,East,90,0.0,0.0,37,0.00,,,0.00,meteohub,2013-10-28 21:57:00,
2013-10-28 17:02:00,55.2,30.0,30.17,East,90,0.0,0.0,38,0.00,,,0.00,meteohub,2013-10-28 22:02:00,
2013-10-28 17:07:00,54.9,30.4,30.17,ENE,68,0.0,0.0,39,0.00,,,0.00,meteohub,2013-10-28 22:07:00,
2013-10-28 17:12:00,54.7,30.2,30.17,ENE,68,0.0,0.0,39,0.00,,,0.00,meteohub,2013-10-28 22:12:00,
2013-10-28 17:22:00,54.0,30.9,30.17,NNE,22,0.0,0.0,41,0.00,,,0.00,meteohub,2013-10-28 22:22:00,
2013-10-28 17:27:00,53.8,31.3,30.17,NNE,22,0.0,0.0,42,0.00,,,0.00,meteohub,2013-10-28 22:27:00,
2013-10-28 17:32:00,53.2,31.3,30.17,NNE,22,0.0,0.0,43,0.00,,,0.00,meteohub,2013-10-28 22:32:00,
2013-10-28 17:37:00,53.1,31.8,30.17,NNE,22,0.0,0.0,44,0.00,,,0.00,meteohub,2013-10-28 22:37:00,
2013-10-28 17:42:00,52.7,31.5,30.17,NNE,22,0.0,0.0,44,0.00,,,0.00,meteohub,2013-10-28 22:42:00,
2013-10-28 17:47:00,52.3,31.6,30.17,NNE,22,0.0,0.0,45,0.00,,,0.00,meteohub,2013-10-28 22:47:00,
2013-10-28 17:52:00,52.3,32.2,30.20,NNE,22,0.0,0.0,46,0.00,,,0.00,meteohub,2013-10-28 22:52:00,
2013-10-28 17:57:00,51.8,31.6,30.20,NE,45,0.0,0.0,46,0.00,,,0.00,meteohub,2013-10-28 22:57:00,
2013-10-28 18:02:00,51.6,32.0,30.20,NE,45,0.0,0.0,47,0.00,,,0.00,meteohub,2013-10-28 23:02:00,
2013-10-28 18:07:00,51.1,31.6,30.17,NE,45,0.0,0.0,47,0.00,,,0.00,meteohub,2013-10-28 23:07:00,
2013-10-28 18:12:00,50.9,31.5,30.17,NE,45,0.0,0.0,47,0.00,,,0.00,meteohub,2013-10-28 23:12:00,
2013-10-28 18:17:00,50.7,31.3,30.17,NE,45,0.0,0.0,47,0.00,,,0.00,meteohub,2013-10-28 23:17:00,
2013-10-28 18:22:00,50.4,31.5,30.17,ESE,112,0.0,0.0,48,0.00,,,0.00,meteohub,2013-10-28 23:22:00,
2013-10-28 18:27:00,50.0,31.1,30.17,ENE,68,0.0,0.0,48,0.00,,,0.00,meteohub,2013-10-28 23:27:00,
2013-10-28 18:32:00,49.8,31.5,30.17,NNW,338,0.0,0.0,49,0.00,,,0.00,meteohub,2013-10-28 23:32:00,
2013-10-28 18:37:00,49.3,31.5,30.17,NNE,22,0.0,0.0,50,0.00,,,0.00,meteohub,2013-10-28 23:37:00,
2013-10-28 18:42:00,49.1,30.7,30.17,NE,45,0.0,0.0,49,0.00,,,0.00,meteohub,2013-10-28 23:42:00,
2013-10-28 18:47:00,48.9,31.6,30.17,NE,45,0.0,0.0,51,0.00,,,0.00,meteohub,2013-10-28 23:47:00,
2013-10-28 18:52:00,48.7,31.5,30.17,NE,45,0.0,0.0,51,0.00,,,0.00,meteohub,2013-10-28 23:52:00,
2013-10-28 18:57:00,48.4,31.1,30.17,NE,45,0.0,0.0,51,0.00,,,0.00,meteohub,2013-10-28 23:57:00,
2013-10-28 19:02:00,48.4,31.6,30.17,ENE,68,0.0,0.0,52,0.00,,,0.00,meteohub,2013-10-29 00:02:00,
2013-10-28 19:07:00,48.0,31.3,30.17,ENE,68,0.0,0.0,52,0.00,,,0.00,meteohub,2013-10-29 00:07:00,
2013-10-28 19:12:00,47.8,31.6,30.17,NE,45,0.0,0.0,53,0.00,,,0.00,meteohub,2013-10-29 00:12:00,
2013-10-28 19:17:00,47.7,31.8,30.17,NNE,22,0.0,0.0,54,0.00,,,0.00,meteohub,2013-10-29 00:17:00,
2013-10-28 19:22:00,47.3,32.0,30.20,NNE,22,0.0,0.0,55,0.00,,,0.00,meteohub,2013-10-29 00:22:00,
2013-10-28 19:27:00,47.3,31.5,30.20,ENE,68,0.0,0.0,54,0.00,,,0.00,meteohub,2013-10-29 00:27:00,
2013-10-28 19:32:00,47.3,31.5,30.20,ENE,68,0.0,0.0,54,0.00,,,0.00,meteohub,2013-10-29 00:32:00,
2013-10-28 19:37:00,47.1,32.2,30.20,ENE,68,0.0,0.0,56,0.00,,,0.00,meteohub,2013-10-29 00:37:00,
2013-10-28 19:42:00,46.8,31.5,30.20,NE,45,0.0,0.0,55,0.00,,,0.00,meteohub,2013-10-29 00:42:00,
2013-10-28 19:47:00,46.6,31.8,30.20,NE,45,0.0,0.0,56,0.00,,,0.00,meteohub,2013-10-29 00:47:00,
2013-10-28 19:52:00,46.4,31.6,30.20,NE,45,0.0,0.0,56,0.00,,,0.00,meteohub,2013-10-29 00:52:00,
2013-10-28 19:57:00,46.2,31.8,30.20,ENE,68,0.0,0.0,57,0.00,,,0.00,meteohub,2013-10-29 00:57:00,
2013-10-28 20:02:00,46.0,32.2,30.20,North,0,0.0,0.0,58,0.00,,,0.00,meteohub,2013-10-29 01:02:00,
2013-10-28 20:07:00,45.9,31.5,30.20,North,0,0.0,0.0,57,0.00,,,0.00,meteohub,2013-10-29 01:07:00,
2013-10-28 20:12:00,45.7,31.8,30.20,North,0,0.0,0.0,58,0.00,,,0.00,meteohub,2013-10-29 01:12:00,
2013-10-28 20:17:00,45.7,31.3,30.20,North,0,0.0,0.0,57,0.00,,,0.00,meteohub,2013-10-29 01:17:00,
2013-10-28 20:22:00,45.5,31.6,30.20,NNW,338,0.0,0.0,58,0.00,,,0.00,meteohub,2013-10-29 01:22:00,
2013-10-28 20:27:00,45.5,32.0,30.20,NNW,338,0.0,1.0,59,0.00,,,0.00,meteohub,2013-10-29 01:27:00,
2013-10-28 20:32:00,45.5,31.6,30.20,NNW,338,0.0,1.0,58,0.00,,,0.00,meteohub,2013-10-29 01:32:00,
2013-10-28 20:37:00,45.5,31.6,30.20,NNW,338,0.0,0.0,58,0.00,,,0.00,meteohub,2013-10-29 01:37:00,
2013-10-28 20:42:00,45.5,31.6,30.20,NNW,338,0.0,0.0,58,0.00,,,0.00,meteohub,2013-10-29 01:42:00,
2013-10-28 20:47:00,45.5,31.6,30.20,NNW,338,0.0,0.0,58,0.00,,,0.00,meteohub,2013-10-29 01:47:00,
2013-10-28 20:52:00,45.7,32.2,30.23,NNW,338,0.0,1.0,59,0.00,,,0.00,meteohub,2013-10-29 01:52:00,
2013-10-28 20:57:00,45.9,32.4,30.23,NNE,22,0.0,1.0,59,0.00,,,0.00,meteohub,2013-10-29 01:57:00,
2013-10-28 21:02:00,45.9,32.4,30.23,NNW,338,0.0,0.0,59,0.00,,,0.00,meteohub,2013-10-29 02:02:00,
2013-10-28 21:07:00,45.9,32.4,30.23,North,0,0.0,0.0,59,0.00,,,0.00,meteohub,2013-10-29 02:07:00,
2013-10-28 21:12:00,46.0,32.5,30.23,North,0,0.0,0.0,59,0.00,,,0.00,meteohub,2013-10-29 02:12:00,
2013-10-28 21:17:00,46.0,32.5,30.23,North,0,0.0,0.0,59,0.00,,,0.00,meteohub,2013-10-29 02:17:00,
2013-10-28 21:22:00,46.2,32.7,30.23,NE,45,0.0,0.0,59,0.00,,,0.00,meteohub,2013-10-29 02:22:00,
2013-10-28 21:27:00,45.9,32.4,30.23,North,0,0.0,0.0,59,0.00,,,0.00,meteohub,2013-10-29 02:27:00,
2013-10-28 21:32:00,45.9,32.4,30.23,NNW,338,0.0,0.0,59,0.00,,,0.00,meteohub,2013-10-29 02:32:00,
2013-10-28 21:37:00,45.3,32.4,30.23,NNW,338,0.0,0.0,60,0.00,,,0.00,meteohub,2013-10-29 02:37:00,
2013-10-28 21:42:00,45.1,32.5,30.23,East,90,0.0,0.0,61,0.00,,,0.00,meteohub,2013-10-29 02:42:00,
2013-10-28 21:47:00,45.0,32.4,30.23,East,90,0.0,0.0,61,0.00,,,0.00,meteohub,2013-10-29 02:47:00,
2013-10-28 21:52:00,44.6,32.4,30.23,NW,315,0.0,0.0,62,0.00,,,0.00,meteohub,2013-10-29 02:52:00,
2013-10-28 21:57:00,44.2,32.0,30.23,NNE,22,0.0,0.0,62,0.00,,,0.00,meteohub,2013-10-29 02:57:00,
2013-10-28 22:02:00,44.1,31.8,30.23,NNE,22,0.0,0.0,62,0.00,,,0.00,meteohub,2013-10-29 03:02:00,
2013-10-28 22:07:00,43.7,32.0,30.23,NNW,338,0.0,0.0,63,0.00,,,0.00,meteohub,2013-10-29 03:07:00,
2013-10-28 22:12:00,43.5,31.8,30.23,NNE,22,0.0,0.0,63,0.00,,,0.00,meteohub,2013-10-29 03:12:00,
2013-10-28 22:17:00,43.3,32.0,30.23,North,0,0.0,0.0,64,0.00,,,0.00,meteohub,2013-10-29 03:17:00,
2013-10-28 22:22:00,43.2,32.2,30.23,North,0,0.0,0.0,65,0.00,,,0.00,meteohub,2013-10-29 03:22:00,
2013-10-28 22:27:00,43.0,32.0,30.23,NNW,338,0.0,0.0,65,0.00,,,0.00,meteohub,2013-10-29 03:27:00,
2013-10-28 22:32:00,43.0,32.0,30.23,NNW,338,0.0,0.0,65,0.00,,,0.00,meteohub,2013-10-29 03:32:00,
2013-10-28 22:37:00,42.8,32.2,30.23,NNW,338,0.0,0.0,66,0.00,,,0.00,meteohub,2013-10-29 03:37:00,
2013-10-28 22:42:00,42.4,32.0,30.23,North,0,0.0,0.0,66,0.00,,,0.00,meteohub,2013-10-29 03:42:00,
2013-10-28 22:47:00,42.3,32.2,30.23,NNE,22,0.0,0.0,67,0.00,,,0.00,meteohub,2013-10-29 03:47:00,
2013-10-28 22:52:00,42.3,32.5,30.26,ENE,68,0.0,0.0,68,0.00,,,0.00,meteohub,2013-10-29 03:52:00,
2013-10-28 22:57:00,42.1,32.4,30.26,ENE,68,0.0,0.0,68,0.00,,,0.00,meteohub,2013-10-29 03:57:00,
2013-10-28 23:02:00,42.1,32.4,30.26,NE,45,0.0,0.0,68,0.00,,,0.00,meteohub,2013-10-29 04:02:00,
2013-10-28 23:07:00,41.9,32.5,30.26,NE,45,0.0,0.0,69,0.00,,,0.00,meteohub,2013-10-29 04:07:00,
2013-10-28 23:12:00,41.7,32.4,30.26,East,90,0.0,0.0,69,0.00,,,0.00,meteohub,2013-10-29 04:12:00,
2013-10-28 23:17:00,41.5,32.5,30.26,East,90,0.0,0.0,70,0.00,,,0.00,meteohub,2013-10-29 04:17:00,
2013-10-28 23:22:00,41.5,32.5,30.23,East,90,0.0,0.0,70,0.00,,,0.00,meteohub,2013-10-29 04:22:00,
2013-10-28 23:27:00,41.4,32.4,30.23,ENE,68,0.0,0.0,70,0.00,,,0.00,meteohub,2013-10-29 04:27:00,
2013-10-28 23:32:00,41.2,32.5,30.23,North,0,0.0,0.0,71,0.00,,,0.00,meteohub,2013-10-29 04:32:00,
2013-10-28 23:37:00,41.0,32.4,30.26,North,0,0.0,0.0,71,0.00,,,0.00,meteohub,2013-10-29 04:37:00,
2013-10-28 23:42:00,41.0,32.4,30.26,North,0,0.0,0.0,71,0.00,,,0.00,meteohub,2013-10-29 04:42:00,
2013-10-28 23:47:00,40.8,32.5,30.26,ENE,68,0.0,0.0,72,0.00,,,0.00,meteohub,2013-10-29 04:47:00,
2013-10-28 23:57:00,40.6,32.7,30.26,NE,45,0.0,0.0,73,0.00,,,0.00,meteohub,2013-10-29 04:57:00,